Time;durP1;ratioP1;P1;durP2;ratioP2;P2;SDS_P1;SDS_P2;PMS_P1;PMS_P2;Temp;Humidity;BMP_temperature;BMP_pressure;BME280_temperature;BME280_humidity;BME280_pressure;Samples;Min_cycle;Max_cycle;Signal;HPM_P1;HPM_P2
2022/12/14 00:00:29;;;;;;;;;;;;;;;;;;1037233;28;20012;-79
2022/12/14 00:01:00;;;;;;;;;;;;;;;;;;1040211;28;19909;-78
2022/12/14 00:01:31;;;;;;;;;;;;;;;;;;1036072;28;20039;-78
2022/12/14 00:02:02;;;;;;;;;;;;;;;;;;1031798;28;19945;-77
2022/12/14 00:02:32;;;;;;;;;;;;;;;;;;1031931;28;19921;-77
2022/12/14 00:03:03;;;;;;;;;;;;;;;;;;1032262;28;19944;-77
2022/12/14 00:03:34;;;;;;;;;;;;;;;;;;1034984;28;20018;-78
2022/12/14 00:04:05;;;;;;;;;;;;;;;;;;1035693;28;19960;-78
2022/12/14 00:04:36;;;;;;;;;;;;;;;;;;1034981;28;20036;-78
2022/12/14 00:05:07;;;;;;;;;;;;;;;;;;1033973;28;19968;-78
2022/12/14 00:05:38;;;;;;;;;;;;;;;;;;1035902;28;19940;-77
2022/12/14 00:06:08;;;;;;;;;;;;;;;;;;1035545;28;20315;-78
2022/12/14 00:06:39;;;;;;;;;;;;;;;;;;1035118;28;19917;-77
2022/12/14 00:07:10;;;;;;;;;;;;;;;;;;1032061;28;19914;-77
2022/12/14 00:07:41;;;;;;;;;;;;;;;;;;1032069;28;20009;-78
2022/12/14 00:08:12;;;;;;;;;;;;;;;;;;1036010;28;19971;-77
2022/12/14 00:08:43;;;;;;;;;;;;;;;;;;1035282;28;19917;-77
2022/12/14 00:09:14;;;;;;;;;;;;;;;;;;1035987;28;19913;-79
2022/12/14 00:09:46;;;;;;;;;;;;;;;;;;1033487;28;20249;-77
2022/12/14 00:10:16;;;;;;;;;;;;;;;;;;1040118;28;19909;-78
2022/12/14 00:10:47;;;;;;;;;;;;;;;;;;1037044;28;19996;-77
2022/12/14 00:11:24;;;;;;;;;;;;;;;;;;1035544;28;20320;-78
2022/12/14 00:11:55;;;;;;;;;;;;;;;;;;1036056;28;19967;-78
2022/12/14 00:12:25;;;;;;;;;;;;;;;;;;1036858;28;19920;-77
2022/12/14 00:12:56;;;;;;;;;;;;;;;;;;1040329;28;19936;-77
2022/12/14 00:13:27;;;;;;;;;;;;;;;;;;1035951;28;19984;-78
2022/12/14 00:13:58;;;;;;;;;;;;;;;;;;1031913;28;19914;-76
2022/12/14 00:14:29;;;;;;;;;;;;;;;;;;1031640;28;19964;-78
2022/12/14 00:15:00;;;;;;;;;;;;;;;;;;1032374;28;20005;-78
2022/12/14 00:15:31;;;;;;;;;;;;;;;;;;1036058;28;19968;-77
2022/12/14 00:16:02;;;;;;;;;;;;;;;;;;1032926;28;19917;-77
2022/12/14 00:16:33;;;;;;;;;;;;;;;;;;1031965;28;20319;-78
2022/12/14 00:17:04;;;;;;;;;;;;;;;;;;1032072;28;19993;-77
2022/12/14 00:17:35;;;;;;;;;;;;;;;;;;1032368;28;19910;-77
2022/12/14 00:18:06;;;;;;;;;;;;;;;;;;1035189;28;20000;-77
2022/12/14 00:18:37;;;;;;;;;;;;;;;;;;1040904;28;20355;-78
2022/12/14 00:19:08;;;;;;;;;;;;;;;;;;1040002;28;19956;-78
2022/12/14 00:19:39;;;;;;;;;;;;;;;;;;1039866;28;19912;-77
2022/12/14 00:20:10;;;;;;;;;;;;;;;;;;1039949;28;19917;-77
2022/12/14 00:20:41;;;;;;;;;;;;;;;;;;1035641;28;20011;-77
2022/12/14 00:21:11;;;;;;;;;;;;;;;;;;1036816;28;19909;-78
2022/12/14 00:21:42;;;;;;;;;;;;;;;;;;1035811;28;19912;-78
2022/12/14 00:22:13;;;;;;;;;;;;;;;;;;1037289;28;20489;-77
2022/12/14 00:22:44;;;;;;;;;;;;;;;;;;1036115;28;19960;-77
2022/12/14 00:23:15;;;;;;;;;;;;;;;;;;1036100;28;19940;-78
2022/12/14 00:23:46;;;;;;;;;;;;;;;;;;1032516;28;19906;-78
2022/12/14 00:24:17;;;;;;;;;;;;;;;;;;1031972;28;20005;-78
2022/12/14 00:24:48;;;;;;;;;;;;;;;;;;1032829;28;19936;-78
2022/12/14 00:25:19;;;;;;;;;;;;;;;;;;1027969;28;19949;-78
2022/12/14 00:25:49;;;;;;;;;;;;;;;;;;1032070;28;19906;-78
2022/12/14 00:26:20;;;;;;;;;;;;;;;;;;1034785;28;20296;-77
2022/12/14 00:26:51;;;;;;;;;;;;;;;;;;1036035;28;20000;-78
2022/12/14 00:27:22;;;;;;;;;;;;;;;;;;1035854;28;20001;-77
2022/12/14 00:27:53;;;;;;;;;;;;;;;;;;1032096;28;19910;-78
2022/12/14 00:28:24;;;;;;;;;;;;;;;;;;1036084;28;19913;-78
2022/12/14 00:28:55;;;;;;;;;;;;;;;;;;1036611;28;19917;-78
2022/12/14 00:29:26;;;;;;;;;;;;;;;;;;1032133;28;20537;-78
2022/12/14 00:29:57;;;;;;;;;;;;;;;;;;1035897;28;20355;-78
2022/12/14 00:30:28;;;;;;;;;;;;;;;;;;1031272;28;19909;-78
2022/12/14 00:30:58;;;;;;;;;;;;;;;;;;1024099;28;20636;-78
2022/12/14 00:31:30;;;;;;;;;;;;;;;;;;1030719;28;19913;-76
2022/12/14 00:32:01;;;;;;;;;;;;;;;;;;1031892;28;20353;-78
2022/12/14 00:32:31;;;;;;;;;;;;;;;;;;1031274;28;20572;-78
2022/12/14 00:33:02;;;;;;;;;;;;;;;;;;1035860;28;19916;-78
2022/12/14 00:33:33;;;;;;;;;;;;;;;;;;1035868;28;19913;-78
2022/12/14 00:34:04;;;;;;;;;;;;;;;;;;1036848;28;19912;-78
2022/12/14 00:34:35;;;;;;;;;;;;;;;;;;1031572;28;19928;-77
2022/12/14 00:35:06;;;;;;;;;;;;;;;;;;1031496;28;20033;-78
2022/12/14 00:35:37;;;;;;;;;;;;;;;;;;1032157;28;19918;-77
2022/12/14 00:36:08;;;;;;;;;;;;;;;;;;1035881;28;20415;-77
2022/12/14 00:36:39;;;;;;;;;;;;;;;;;;1033111;28;19910;-76
2022/12/14 00:37:09;;;;;;;;;;;;;;;;;;1031633;28;19988;-77
2022/12/14 00:37:40;;;;;;;;;;;;;;;;;;1035177;28;20551;-78
2022/12/14 00:38:11;;;;;;;;;;;;;;;;;;1035964;28;19920;-78
2022/12/14 00:38:42;;;;;;;;;;;;;;;;;;1038264;28;20349;-78
2022/12/14 00:39:13;;;;;;;;;;;;;;;;;;1036493;28;19917;-79
2022/12/14 00:39:44;;;;;;;;;;;;;;;;;;1031716;28;19917;-79
2022/12/14 00:40:15;;;;;;;;;;;;;;;;;;1031587;28;19921;-78
2022/12/14 00:40:46;;;;;;;;;;;;;;;;;;1027778;28;19974;-78
2022/12/14 00:41:17;;;;;;;;;;;;;;;;;;1027706;28;20369;-78
2022/12/14 00:41:47;;;;;;;;;;;;;;;;;;1028724;28;20365;-77
2022/12/14 00:42:18;;;;;;;;;;;;;;;;;;1032246;28;19906;-77
2022/12/14 00:42:49;;;;;;;;;;;;;;;;;;1035480;28;20097;-78
2022/12/14 00:43:20;;;;;;;;;;;;;;;;;;1035703;28;19917;-77
2022/12/14 00:43:51;;;;;;;;;;;;;;;;;;1035614;28;20004;-77
2022/12/14 00:44:22;;;;;;;;;;;;;;;;;;1036367;28;19909;-76
2022/12/14 00:44:53;;;;;;;;;;;;;;;;;;1035703;28;19967;-78
2022/12/14 00:45:23;;;;;;;;;;;;;;;;;;1036027;28;19956;-76
2022/12/14 00:45:54;;;;;;;;;;;;;;;;;;1035955;28;19916;-77
2022/12/14 00:46:25;;;;;;;;;;;;;;;;;;1031700;28;19915;-75
2022/12/14 00:46:56;;;;;;;;;;;;;;;;;;1027750;28;19917;-77
2022/12/14 00:47:27;;;;;;;;;;;;;;;;;;1027935;28;19907;-77
2022/12/14 00:47:58;;;;;;;;;;;;;;;;;;1029298;28;19914;-77
2022/12/14 00:48:29;;;;;;;;;;;;;;;;;;1032250;28;20373;-77
2022/12/14 00:49:00;;;;;;;;;;;;;;;;;;1035540;28;19996;-76
2022/12/14 00:49:30;;;;;;;;;;;;;;;;;;1035221;28;20435;-77
2022/12/14 00:50:01;;;;;;;;;;;;;;;;;;1032060;28;20008;-77
2022/12/14 00:50:32;;;;;;;;;;;;;;;;;;1036035;28;19940;-78
2022/12/14 00:51:03;;;;;;;;;;;;;;;;;;1035448;28;19913;-77
2022/12/14 00:51:34;;;;;;;;;;;;;;;;;;1031753;28;20000;-77
2022/12/14 00:52:05;;;;;;;;;;;;;;;;;;1032128;28;20348;-78
2022/12/14 00:52:35;;;;;;;;;;;;;;;;;;1036608;28;19912;-78
2022/12/14 00:53:06;;;;;;;;;;;;;;;;;;1034691;28;20580;-76
2022/12/14 00:53:37;;;;;;;;;;;;;;;;;;1028077;28;19906;-77
2022/12/14 00:54:08;;;;;;;;;;;;;;;;;;1027996;28;19949;-77
2022/12/14 00:54:39;;;;;;;;;;;;;;;;;;1027800;28;19990;-77
2022/12/14 00:55:10;;;;;;;;;;;;;;;;;;1024377;28;19989;-78
2022/12/14 00:55:41;;;;;;;;;;;;;;;;;;1028071;28;20001;-76
2022/12/14 00:56:12;;;;;;;;;;;;;;;;;;1028133;28;19954;-78
2022/12/14 00:56:43;;;;;;;;;;;;;;;;;;1029589;28;19988;-77
2022/12/14 00:57:14;;;;;;;;;;;;;;;;;;1032375;28;19910;-81
2022/12/14 00:57:45;;;;;;;;;;;;;;;;;;1032554;28;19961;-76
2022/12/14 00:58:16;;;;;;;;;;;;;;;;;;1036359;28;20284;-76
2022/12/14 00:58:46;;;;;;;;;;;;;;;;;;1031788;28;19910;-76
2022/12/14 00:59:17;;;;;;;;;;;;;;;;;;1032032;28;20380;-76
2022/12/14 00:59:48;;;;;;;;;;;;;;;;;;1035524;28;19937;-77
2022/12/14 01:00:19;;;;;;;;;;;;;;;;;;1036863;28;20005;-76
2022/12/14 01:00:53;;;;;;;;;;;;;;;;;;1035539;28;19918;-77
2022/12/14 01:01:24;;;;;;;;;;;;;;;;;;1035974;28;20736;-78
2022/12/14 01:01:54;;;;;;;;;;;;;;;;;;1031709;28;20308;-77
2022/12/14 01:02:25;;;;;;;;;;;;;;;;;;1033189;28;19960;-77
2022/12/14 01:02:56;;;;;;;;;;;;;;;;;;1036003;28;20432;-77
2022/12/14 01:03:27;;;;;;;;;;;;;;;;;;1036321;28;19910;-77
2022/12/14 01:04:15;;;;;;;;;;;;;;;;;;1035783;28;19913;-78
2022/12/14 01:04:46;;;;;;;;;;;;;;;;;;1031765;28;19918;-76
2022/12/14 01:05:17;;;;;;;;;;;;;;;;;;1032403;28;19918;-76
2022/12/14 01:05:48;;;;;;;;;;;;;;;;;;1034375;28;19916;-77
2022/12/14 01:06:19;;;;;;;;;;;;;;;;;;1036235;28;20012;-77
2022/12/14 01:06:50;;;;;;;;;;;;;;;;;;1035845;28;19909;-77
2022/12/14 01:07:21;;;;;;;;;;;;;;;;;;1031619;28;19913;-76
2022/12/14 01:07:52;;;;;;;;;;;;;;;;;;1033572;28;20001;-76
2022/12/14 01:08:22;;;;;;;;;;;;;;;;;;1035241;28;20380;-76
2022/12/14 01:08:53;;;;;;;;;;;;;;;;;;1031790;28;19914;-78
2022/12/14 01:09:24;;;;;;;;;;;;;;;;;;1031955;28;19914;-77
2022/12/14 01:09:55;;;;;;;;;;;;;;;;;;1031625;28;19914;-77
2022/12/14 01:10:26;;;;;;;;;;;;;;;;;;1032580;28;19909;-77
2022/12/14 01:10:57;;;;;;;;;;;;;;;;;;1031730;28;20000;-76
2022/12/14 01:11:28;;;;;;;;;;;;;;;;;;1032175;28;20309;-78
2022/12/14 01:11:59;;;;;;;;;;;;;;;;;;1034152;28;19914;-77
2022/12/14 01:12:30;;;;;;;;;;;;;;;;;;1035856;28;19920;-77
2022/12/14 01:13:00;;;;;;;;;;;;;;;;;;1034923;28;19967;-78
2022/12/14 01:13:31;;;;;;;;;;;;;;;;;;1031582;28;19910;-78
2022/12/14 01:14:02;;;;;;;;;;;;;;;;;;1031983;28;19910;-78
2022/12/14 01:14:33;;;;;;;;;;;;;;;;;;1035427;28;19964;-77
2022/12/14 01:15:04;;;;;;;;;;;;;;;;;;1035868;28;19956;-79
2022/12/14 01:15:35;;;;;;;;;;;;;;;;;;1037058;28;19909;-77
2022/12/14 01:16:06;;;;;;;;;;;;;;;;;;1036340;28;19973;-78
2022/12/14 01:16:37;;;;;;;;;;;;;;;;;;1036088;28;20642;-77
2022/12/14 01:17:07;;;;;;;;;;;;;;;;;;1031762;28;20377;-77
2022/12/14 01:17:38;;;;;;;;;;;;;;;;;;1031898;28;19916;-77
2022/12/14 01:18:10;;;;;;;;;;;;;;;;;;1035585;28;19952;-77
2022/12/14 01:18:40;;;;;;;;;;;;;;;;;;1036082;28;19944;-77
2022/12/14 01:19:11;;;;;;;;;;;;;;;;;;1040300;28;19912;-77
2022/12/14 01:19:42;;;;;;;;;;;;;;;;;;1035392;28;19918;-77
2022/12/14 01:20:13;;;;;;;;;;;;;;;;;;1035671;28;19909;-78
2022/12/14 01:20:44;;;;;;;;;;;;;;;;;;1032158;28;19941;-77
2022/12/14 01:21:15;;;;;;;;;;;;;;;;;;1032341;28;20420;-77
2022/12/14 01:21:47;;;;;;;;;;;;;;;;;;1035778;28;19909;-78
2022/12/14 01:22:18;;;;;;;;;;;;;;;;;;1036150;28;19952;-77
2022/12/14 01:22:48;;;;;;;;;;;;;;;;;;1040158;28;19909;-77
2022/12/14 01:23:19;;;;;;;;;;;;;;;;;;1040810;28;19906;-77
2022/12/14 01:23:50;;;;;;;;;;;;;;;;;;1040205;28;19945;-77
2022/12/14 01:24:21;;;;;;;;;;;;;;;;;;1040319;28;20369;-77
2022/12/14 01:24:52;;;;;;;;;;;;;;;;;;1036019;28;20281;-77
2022/12/14 01:25:23;;;;;;;;;;;;;;;;;;1035890;28;20368;-78
2022/12/14 01:25:54;;;;;;;;;;;;;;;;;;1036566;28;19913;-77
2022/12/14 01:26:25;;;;;;;;;;;;;;;;;;1036085;28;19916;-77
2022/12/14 01:26:56;;;;;;;;;;;;;;;;;;1036121;28;19928;-77
2022/12/14 01:27:26;;;;;;;;;;;;;;;;;;1031890;28;19910;-77
2022/12/14 01:27:57;;;;;;;;;;;;;;;;;;1032092;28;19910;-76
2022/12/14 01:28:28;;;;;;;;;;;;;;;;;;1032516;28;19922;-77
2022/12/14 01:28:59;;;;;;;;;;;;;;;;;;1031964;28;20004;-76
2022/12/14 01:29:30;;;;;;;;;;;;;;;;;;1034316;28;19916;-76
2022/12/14 01:30:01;;;;;;;;;;;;;;;;;;1032003;28;19932;-77
2022/12/14 01:30:32;;;;;;;;;;;;;;;;;;1035922;28;19906;-77
2022/12/14 01:31:03;;;;;;;;;;;;;;;;;;1036181;28;19910;-77
2022/12/14 01:31:34;;;;;;;;;;;;;;;;;;1035844;28;20315;-77
2022/12/14 01:32:05;;;;;;;;;;;;;;;;;;1035733;28;19910;-77
2022/12/14 01:32:36;;;;;;;;;;;;;;;;;;1039861;28;19991;-76
2022/12/14 01:33:06;;;;;;;;;;;;;;;;;;1040807;28;19996;-76
2022/12/14 01:33:37;;;;;;;;;;;;;;;;;;1036256;28;19961;-77
2022/12/14 01:34:08;;;;;;;;;;;;;;;;;;1036023;28;20350;-76
2022/12/14 01:34:39;;;;;;;;;;;;;;;;;;1035632;28;20388;-76
2022/12/14 01:35:10;;;;;;;;;;;;;;;;;;1031405;28;20001;-77
2022/12/14 01:35:41;;;;;;;;;;;;;;;;;;1031630;28;19906;-77
2022/12/14 01:36:12;;;;;;;;;;;;;;;;;;1033220;28;19905;-78
2022/12/14 01:36:42;;;;;;;;;;;;;;;;;;1031904;28;19906;-77
2022/12/14 01:37:13;;;;;;;;;;;;;;;;;;1035526;28;20079;-78
2022/12/14 01:37:44;;;;;;;;;;;;;;;;;;1035540;28;19925;-77
2022/12/14 01:38:15;;;;;;;;;;;;;;;;;;1035997;28;19920;-78
2022/12/14 01:38:46;;;;;;;;;;;;;;;;;;1036187;28;19914;-78
2022/12/14 01:39:17;;;;;;;;;;;;;;;;;;1036218;28;20336;-77
2022/12/14 01:39:48;;;;;;;;;;;;;;;;;;1033542;28;19977;-77
2022/12/14 01:40:19;;;;;;;;;;;;;;;;;;1031621;28;20397;-77
2022/12/14 01:40:49;;;;;;;;;;;;;;;;;;1031576;28;19914;-78
2022/12/14 01:41:20;;;;;;;;;;;;;;;;;;1034089;28;19909;-77
2022/12/14 01:41:51;;;;;;;;;;;;;;;;;;1036284;28;19964;-78
2022/12/14 01:42:22;;;;;;;;;;;;;;;;;;1031614;28;20285;-77
2022/12/14 01:42:53;;;;;;;;;;;;;;;;;;1028887;28;20410;-77
2022/12/14 01:43:24;;;;;;;;;;;;;;;;;;1035812;28;19957;-77
2022/12/14 01:43:55;;;;;;;;;;;;;;;;;;1035866;28;19936;-78
2022/12/14 01:44:26;;;;;;;;;;;;;;;;;;1036637;28;19945;-78
2022/12/14 01:44:57;;;;;;;;;;;;;;;;;;1035433;28;19917;-78
2022/12/14 01:45:28;;;;;;;;;;;;;;;;;;1035965;28;19910;-78
2022/12/14 01:45:58;;;;;;;;;;;;;;;;;;1035751;28;20280;-77
2022/12/14 01:46:29;;;;;;;;;;;;;;;;;;1030493;28;19916;-78
2022/12/14 01:47:01;;;;;;;;;;;;;;;;;;1028206;28;19914;-78
2022/12/14 01:47:31;;;;;;;;;;;;;;;;;;1024006;28;19911;-78
2022/12/14 01:48:02;;;;;;;;;;;;;;;;;;1027529;28;19952;-78
2022/12/14 01:48:33;;;;;;;;;;;;;;;;;;1027394;28;20041;-77
2022/12/14 01:49:04;;;;;;;;;;;;;;;;;;1027875;28;20420;-77
2022/12/14 01:49:35;;;;;;;;;;;;;;;;;;1032489;28;19917;-78
2022/12/14 01:50:06;;;;;;;;;;;;;;;;;;1031599;28;20008;-77
2022/12/14 01:50:37;;;;;;;;;;;;;;;;;;1035570;28;19910;-78
2022/12/14 01:51:08;;;;;;;;;;;;;;;;;;1035577;28;19963;-77
2022/12/14 01:51:38;;;;;;;;;;;;;;;;;;1035684;28;19920;-78
2022/12/14 01:52:09;;;;;;;;;;;;;;;;;;1032023;28;19910;-77
2022/12/14 01:52:40;;;;;;;;;;;;;;;;;;1031728;28;19917;-77
2022/12/14 01:53:11;;;;;;;;;;;;;;;;;;1032320;28;19920;-79
2022/12/14 01:53:42;;;;;;;;;;;;;;;;;;1035911;28;20029;-78
2022/12/14 01:54:14;;;;;;;;;;;;;;;;;;1035967;28;19917;-78
2022/12/14 01:54:45;;;;;;;;;;;;;;;;;;1036573;28;19910;-77
2022/12/14 01:55:16;;;;;;;;;;;;;;;;;;1032035;28;19914;-78
2022/12/14 01:55:47;;;;;;;;;;;;;;;;;;1035889;28;20493;-78
2022/12/14 01:56:17;;;;;;;;;;;;;;;;;;1035755;28;19910;-77
2022/12/14 01:56:48;;;;;;;;;;;;;;;;;;1035988;28;19916;-77
2022/12/14 01:57:19;;;;;;;;;;;;;;;;;;1036436;28;19920;-77
2022/12/14 01:57:50;;;;;;;;;;;;;;;;;;1035820;28;19913;-77
2022/12/14 01:58:21;;;;;;;;;;;;;;;;;;1035657;28;19917;-78
2022/12/14 01:58:52;;;;;;;;;;;;;;;;;;1032062;28;20333;-78
2022/12/14 01:59:23;;;;;;;;;;;;;;;;;;1035659;28;19913;-77
2022/12/14 01:59:54;;;;;;;;;;;;;;;;;;1036994;28;20533;-77
2022/12/14 02:00:24;;;;;;;;;;;;;;;;;;1035954;28;20423;-78
2022/12/14 02:00:55;;;;;;;;;;;;;;;;;;1040015;28;19913;-78
2022/12/14 02:01:26;;;;;;;;;;;;;;;;;;1039676;28;20047;-77
2022/12/14 02:01:57;;;;;;;;;;;;;;;;;;1035616;28;19914;-77
2022/12/14 02:02:28;;;;;;;;;;;;;;;;;;1036343;28;19913;-77
2022/12/14 02:02:59;;;;;;;;;;;;;;;;;;1035642;28;19916;-77
2022/12/14 02:03:30;;;;;;;;;;;;;;;;;;1031384;28;19920;-78
2022/12/14 02:04:01;;;;;;;;;;;;;;;;;;1031792;28;19917;-78
2022/12/14 02:04:32;;;;;;;;;;;;;;;;;;1031836;28;20004;-78
2022/12/14 02:05:02;;;;;;;;;;;;;;;;;;1032421;28;20236;-78
2022/12/14 02:05:33;;;;;;;;;;;;;;;;;;1031936;28;19913;-78
2022/12/14 02:06:04;;;;;;;;;;;;;;;;;;1035925;28;19931;-78
2022/12/14 02:06:35;;;;;;;;;;;;;;;;;;1040418;28;19916;-78
2022/12/14 02:07:06;;;;;;;;;;;;;;;;;;1039212;28;20000;-78
2022/12/14 02:07:37;;;;;;;;;;;;;;;;;;1036992;28;19913;-78
2022/12/14 02:08:08;;;;;;;;;;;;;;;;;;1031662;28;19965;-78
2022/12/14 02:08:39;;;;;;;;;;;;;;;;;;1031600;28;20056;-77
2022/12/14 02:09:10;;;;;;;;;;;;;;;;;;1031682;28;19921;-77
2022/12/14 02:09:40;;;;;;;;;;;;;;;;;;1032080;28;19945;-77
2022/12/14 02:10:11;;;;;;;;;;;;;;;;;;1035624;28;19910;-77
2022/12/14 02:10:42;;;;;;;;;;;;;;;;;;1035912;28;19910;-77
2022/12/14 02:11:13;;;;;;;;;;;;;;;;;;1031533;28;20439;-78
2022/12/14 02:11:44;;;;;;;;;;;;;;;;;;1031835;28;19945;-78
2022/12/14 02:12:15;;;;;;;;;;;;;;;;;;1035668;28;20000;-78
2022/12/14 02:12:46;;;;;;;;;;;;;;;;;;1032481;28;19920;-78
2022/12/14 02:13:17;;;;;;;;;;;;;;;;;;1035756;28;19909;-77
2022/12/14 02:13:48;;;;;;;;;;;;;;;;;;1035658;28;19913;-78
2022/12/14 02:14:18;;;;;;;;;;;;;;;;;;1031364;28;20017;-78
2022/12/14 02:14:49;;;;;;;;;;;;;;;;;;1031954;28;20383;-79
2022/12/14 02:15:20;;;;;;;;;;;;;;;;;;1032402;28;20068;-78
2022/12/14 02:15:51;;;;;;;;;;;;;;;;;;1027852;28;19910;-77
2022/12/14 02:16:22;;;;;;;;;;;;;;;;;;1031623;28;19914;-77
2022/12/14 02:16:53;;;;;;;;;;;;;;;;;;1031783;28;20004;-76
2022/12/14 02:17:24;;;;;;;;;;;;;;;;;;1035732;28;20280;-78
2022/12/14 02:17:54;;;;;;;;;;;;;;;;;;1039820;28;19913;-77
2022/12/14 02:18:25;;;;;;;;;;;;;;;;;;1040010;28;20356;-77
2022/12/14 02:18:56;;;;;;;;;;;;;;;;;;1040260;28;19917;-78
2022/12/14 02:19:27;;;;;;;;;;;;;;;;;;1035588;28;20008;-77
2022/12/14 02:19:58;;;;;;;;;;;;;;;;;;1035834;28;20008;-77
2022/12/14 02:20:29;;;;;;;;;;;;;;;;;;1032349;28;19918;-78
2022/12/14 02:21:00;;;;;;;;;;;;;;;;;;1031868;28;19910;-77
2022/12/14 02:21:31;;;;;;;;;;;;;;;;;;1031586;28;19921;-77
2022/12/14 02:22:02;;;;;;;;;;;;;;;;;;1032000;28;19917;-77
2022/12/14 02:22:32;;;;;;;;;;;;;;;;;;1035512;28;20315;-78
2022/12/14 02:23:03;;;;;;;;;;;;;;;;;;1036601;28;19965;-78
2022/12/14 02:23:34;;;;;;;;;;;;;;;;;;1031717;28;19924;-78
2022/12/14 02:24:05;;;;;;;;;;;;;;;;;;1032678;28;19921;-78
2022/12/14 02:24:36;;;;;;;;;;;;;;;;;;1035452;28;19913;-78
2022/12/14 02:25:07;;;;;;;;;;;;;;;;;;1031482;28;19914;-78
2022/12/14 02:25:38;;;;;;;;;;;;;;;;;;1036306;28;19988;-77
2022/12/14 02:26:08;;;;;;;;;;;;;;;;;;1035734;28;20004;-78
2022/12/14 02:26:39;;;;;;;;;;;;;;;;;;1039430;28;19913;-77
2022/12/14 02:27:10;;;;;;;;;;;;;;;;;;1035745;28;19909;-78
2022/12/14 02:27:41;;;;;;;;;;;;;;;;;;1032912;28;19959;-78
2022/12/14 02:28:12;;;;;;;;;;;;;;;;;;1032337;28;19914;-78
2022/12/14 02:28:43;;;;;;;;;;;;;;;;;;1032018;28;19914;-79
2022/12/14 02:29:14;;;;;;;;;;;;;;;;;;1035757;28;20008;-79
2022/12/14 02:29:45;;;;;;;;;;;;;;;;;;1035825;28;20593;-79
2022/12/14 02:30:15;;;;;;;;;;;;;;;;;;1031747;28;20273;-78
2022/12/14 02:30:47;;;;;;;;;;;;;;;;;;1035942;28;19919;-79
2022/12/14 02:31:17;;;;;;;;;;;;;;;;;;1031819;28;19910;-78
2022/12/14 02:31:48;;;;;;;;;;;;;;;;;;1028128;28;20013;-78
2022/12/14 02:32:19;;;;;;;;;;;;;;;;;;1031654;28;19921;-78
2022/12/14 02:32:50;;;;;;;;;;;;;;;;;;1036009;28;19918;-78
2022/12/14 02:33:21;;;;;;;;;;;;;;;;;;1036409;28;20015;-78
2022/12/14 02:33:52;;;;;;;;;;;;;;;;;;1039906;28;19967;-78
2022/12/14 02:34:23;;;;;;;;;;;;;;;;;;1035424;28;19972;-79
2022/12/14 02:34:55;;;;;;;;;;;;;;;;;;1035648;28;20654;-78
2022/12/14 02:35:26;;;;;;;;;;;;;;;;;;1035532;28;19910;-79
2022/12/14 02:35:57;;;;;;;;;;;;;;;;;;1036047;28;19996;-79
2022/12/14 02:36:28;;;;;;;;;;;;;;;;;;1036000;28;20464;-78
2022/12/14 02:36:59;;;;;;;;;;;;;;;;;;1031510;28;19932;-78
2022/12/14 02:37:30;;;;;;;;;;;;;;;;;;1027776;28;19922;-77
2022/12/14 02:38:00;;;;;;;;;;;;;;;;;;1028271;28;19910;-78
2022/12/14 02:38:33;;;;;;;;;;;;;;;;;;1028141;28;19945;-80
2022/12/14 02:39:04;;;;;;;;;;;;;;;;;;1032053;28;19906;-78
2022/12/14 02:39:34;;;;;;;;;;;;;;;;;;1034284;28;20000;-79
2022/12/14 02:40:05;;;;;;;;;;;;;;;;;;1035826;28;19910;-78
2022/12/14 02:40:36;;;;;;;;;;;;;;;;;;1035730;28;19920;-78
2022/12/14 02:41:07;;;;;;;;;;;;;;;;;;1031757;28;19913;-78
2022/12/14 02:41:38;;;;;;;;;;;;;;;;;;1031911;28;19913;-77
2022/12/14 02:42:09;;;;;;;;;;;;;;;;;;1031650;28;19941;-78
2022/12/14 02:42:40;;;;;;;;;;;;;;;;;;1031442;28;19933;-77
2022/12/14 02:43:11;;;;;;;;;;;;;;;;;;1031977;28;19913;-77
2022/12/14 02:43:41;;;;;;;;;;;;;;;;;;1035972;28;19925;-79
2022/12/14 02:44:12;;;;;;;;;;;;;;;;;;1034761;28;19940;-77
2022/12/14 02:44:43;;;;;;;;;;;;;;;;;;1033995;28;19921;-78
2022/12/14 02:45:14;;;;;;;;;;;;;;;;;;1031530;28;19985;-77
2022/12/14 02:45:45;;;;;;;;;;;;;;;;;;1031671;28;19920;-76
2022/12/14 02:46:16;;;;;;;;;;;;;;;;;;1035804;28;19920;-79
2022/12/14 02:46:47;;;;;;;;;;;;;;;;;;1036156;28;20368;-77
2022/12/14 02:47:18;;;;;;;;;;;;;;;;;;1035963;28;19913;-78
2022/12/14 02:47:49;;;;;;;;;;;;;;;;;;1031337;28;20284;-77
2022/12/14 02:48:19;;;;;;;;;;;;;;;;;;1031694;28;20021;-77
2022/12/14 02:48:50;;;;;;;;;;;;;;;;;;1031657;28;20421;-78
2022/12/14 02:49:21;;;;;;;;;;;;;;;;;;1032445;28;19964;-77
2022/12/14 02:49:52;;;;;;;;;;;;;;;;;;1024439;28;20441;-75
2022/12/14 02:50:23;;;;;;;;;;;;;;;;;;1027745;28;19914;-77
2022/12/14 02:50:54;;;;;;;;;;;;;;;;;;1028186;28;20578;-77
2022/12/14 02:51:25;;;;;;;;;;;;;;;;;;1030045;28;19910;-76
2022/12/14 02:51:55;;;;;;;;;;;;;;;;;;1032208;28;20407;-75
2022/12/14 02:52:27;;;;;;;;;;;;;;;;;;1031807;28;20270;-75
2022/12/14 02:52:58;;;;;;;;;;;;;;;;;;1035745;28;19917;-75
2022/12/14 02:53:29;;;;;;;;;;;;;;;;;;1035829;28;19909;-76
2022/12/14 02:53:59;;;;;;;;;;;;;;;;;;1035395;28;20357;-79
2022/12/14 02:54:30;;;;;;;;;;;;;;;;;;1036661;28;19953;-76
2022/12/14 02:55:01;;;;;;;;;;;;;;;;;;1032207;28;19913;-78
2022/12/14 02:55:32;;;;;;;;;;;;;;;;;;1036105;28;19957;-77
2022/12/14 02:56:03;;;;;;;;;;;;;;;;;;1037475;28;19913;-77
2022/12/14 02:56:34;;;;;;;;;;;;;;;;;;1033248;28;19991;-77
2022/12/14 02:57:05;;;;;;;;;;;;;;;;;;1032041;28;19957;-77
2022/12/14 02:57:36;;;;;;;;;;;;;;;;;;1031311;28;19914;-76
2022/12/14 02:58:06;;;;;;;;;;;;;;;;;;1031732;28;20419;-76
2022/12/14 02:58:37;;;;;;;;;;;;;;;;;;1035690;28;19917;-77
2022/12/14 02:59:09;;;;;;;;;;;;;;;;;;1035640;28;19913;-77
2022/12/14 02:59:39;;;;;;;;;;;;;;;;;;1036068;28;19917;-76
2022/12/14 03:00:10;;;;;;;;;;;;;;;;;;1035601;28;19992;-76
2022/12/14 03:00:41;;;;;;;;;;;;;;;;;;1031051;28;19910;-76
2022/12/14 03:01:12;;;;;;;;;;;;;;;;;;1027423;28;20009;-76
2022/12/14 03:01:43;;;;;;;;;;;;;;;;;;1027380;28;19929;-77
2022/12/14 03:02:14;;;;;;;;;;;;;;;;;;1028450;28;19917;-78
2022/12/14 03:02:45;;;;;;;;;;;;;;;;;;1026116;28;20019;-76
2022/12/14 03:03:16;;;;;;;;;;;;;;;;;;1031604;28;20000;-77
2022/12/14 03:03:47;;;;;;;;;;;;;;;;;;1031650;28;19914;-77
2022/12/14 03:04:17;;;;;;;;;;;;;;;;;;1031498;28;19981;-77
2022/12/14 03:04:48;;;;;;;;;;;;;;;;;;1031817;28;19914;-78
2022/12/14 03:05:19;;;;;;;;;;;;;;;;;;1027791;28;19914;-78
2022/12/14 03:05:50;;;;;;;;;;;;;;;;;;1027743;28;20005;-77
2022/12/14 03:06:27;;;;;;;;;;;;;;;;;;1031209;28;19914;-78
2022/12/14 03:06:58;;;;;;;;;;;;;;;;;;1031560;28;20664;-77
2022/12/14 03:07:30;;;;;;;;;;;;;;;;;;1032806;28;20293;-77
2022/12/14 03:08:01;;;;;;;;;;;;;;;;;;1031409;28;19910;-77
2022/12/14 03:08:33;;;;;;;;;;;;;;;;;;1028836;28;19938;-78
2022/12/14 03:09:03;;;;;;;;;;;;;;;;;;1027391;28;19958;-78
2022/12/14 03:09:34;;;;;;;;;;;;;;;;;;1030782;28;19917;-77
2022/12/14 03:10:05;;;;;;;;;;;;;;;;;;1036486;28;19933;-78
2022/12/14 03:10:36;;;;;;;;;;;;;;;;;;1031699;28;19914;-78
2022/12/14 03:11:07;;;;;;;;;;;;;;;;;;1031549;28;19914;-78
2022/12/14 03:11:39;;;;;;;;;;;;;;;;;;1031831;28;19980;-77
2022/12/14 03:12:10;;;;;;;;;;;;;;;;;;1031784;28;19989;-77
2022/12/14 03:12:41;;;;;;;;;;;;;;;;;;1035789;28;20026;-78
2022/12/14 03:13:12;;;;;;;;;;;;;;;;;;1032009;28;19910;-78
2022/12/14 03:13:43;;;;;;;;;;;;;;;;;;1032132;28;19997;-77
2022/12/14 03:14:14;;;;;;;;;;;;;;;;;;1035339;28;19960;-77
2022/12/14 03:14:45;;;;;;;;;;;;;;;;;;1027336;28;19957;-77
2022/12/14 03:15:16;;;;;;;;;;;;;;;;;;1030156;28;20004;-77
2022/12/14 03:15:46;;;;;;;;;;;;;;;;;;1028587;28;19914;-77
2022/12/14 03:16:17;;;;;;;;;;;;;;;;;;1031506;28;19957;-77
2022/12/14 03:16:48;;;;;;;;;;;;;;;;;;1036123;28;19920;-77
2022/12/14 03:17:19;;;;;;;;;;;;;;;;;;1032058;28;19913;-77
2022/12/14 03:17:50;;;;;;;;;;;;;;;;;;1032935;28;19916;-77
2022/12/14 03:18:21;;;;;;;;;;;;;;;;;;1032131;28;20012;-77
2022/12/14 03:18:52;;;;;;;;;;;;;;;;;;1028334;28;19921;-77
2022/12/14 03:19:23;;;;;;;;;;;;;;;;;;1032047;28;19914;-78
2022/12/14 03:19:54;;;;;;;;;;;;;;;;;;1032272;28;19922;-78
2022/12/14 03:20:24;;;;;;;;;;;;;;;;;;1032863;28;19917;-77
2022/12/14 03:20:55;;;;;;;;;;;;;;;;;;1028363;28;19968;-78
2022/12/14 03:21:26;;;;;;;;;;;;;;;;;;1032050;28;19920;-77
2022/12/14 03:21:57;;;;;;;;;;;;;;;;;;1030951;28;19964;-78
2022/12/14 03:22:28;;;;;;;;;;;;;;;;;;1028308;28;19917;-77
2022/12/14 03:22:59;;;;;;;;;;;;;;;;;;1033081;28;19920;-77
2022/12/14 03:23:30;;;;;;;;;;;;;;;;;;1032204;28;20004;-77
2022/12/14 03:24:00;;;;;;;;;;;;;;;;;;1032748;28;19910;-77
2022/12/14 03:24:31;;;;;;;;;;;;;;;;;;1036198;28;19917;-77
2022/12/14 03:25:02;;;;;;;;;;;;;;;;;;1035951;28;20007;-77
2022/12/14 03:25:33;;;;;;;;;;;;;;;;;;1033145;28;19947;-77
2022/12/14 03:26:04;;;;;;;;;;;;;;;;;;1035607;28;19913;-77
2022/12/14 03:26:35;;;;;;;;;;;;;;;;;;1036090;28;19952;-77
2022/12/14 03:27:06;;;;;;;;;;;;;;;;;;1036414;28;19913;-77
2022/12/14 03:27:36;;;;;;;;;;;;;;;;;;1034078;28;19913;-77
2022/12/14 03:28:07;;;;;;;;;;;;;;;;;;1032716;28;20348;-77
2022/12/14 03:28:38;;;;;;;;;;;;;;;;;;1031840;28;19917;-77
2022/12/14 03:29:09;;;;;;;;;;;;;;;;;;1032291;28;20444;-77
2022/12/14 03:29:40;;;;;;;;;;;;;;;;;;1032237;28;19945;-77
2022/12/14 03:30:11;;;;;;;;;;;;;;;;;;1032205;28;19921;-77
2022/12/14 03:30:42;;;;;;;;;;;;;;;;;;1037403;28;20604;-79
2022/12/14 03:31:12;;;;;;;;;;;;;;;;;;1035807;28;19995;-77
2022/12/14 03:31:43;;;;;;;;;;;;;;;;;;1032242;28;19914;-77